createdAt,value
2017-04-29T00:02:23.348Z,93.60
2017-04-29T00:04:51.625Z,93.60
2017-04-29T00:07:19.957Z,93.70
2017-04-29T00:09:48.236Z,93.70
2017-04-29T00:12:16.511Z,93.70
2017-04-29T00:14:44.837Z,93.50
2017-04-29T00:17:13.141Z,93.40
2017-04-29T00:19:42.164Z,93.30
2017-04-29T00:22:10.484Z,93.20
2017-04-29T00:24:38.775Z,93.30
2017-04-29T00:27:07.810Z,93.30
2017-04-29T00:29:36.128Z,93.30
2017-04-29T00:32:04.409Z,93.50
2017-04-29T00:34:32.716Z,93.50
2017-04-29T00:37:01.772Z,93.50
2017-04-29T00:39:30.049Z,93.40
2017-04-29T00:41:58.328Z,93.40
2017-04-29T00:44:26.649Z,93.40
2017-04-29T00:46:54.958Z,93.30
2017-04-29T00:49:23.238Z,93.30
2017-04-29T00:51:51.564Z,93.30
2017-04-29T00:54:19.840Z,93.30
2017-04-29T00:56:48.131Z,93.30
2017-04-29T00:59:17.197Z,93.30
2017-04-29T01:01:45.475Z,93.30
2017-04-29T01:04:13.769Z,93.40
2017-04-29T01:06:42.078Z,93.40
2017-04-29T01:09:10.359Z,93.50
2017-04-29T01:11:38.644Z,93.50
2017-04-29T01:14:06.976Z,93.50
2017-04-29T01:16:35.256Z,93.50
2017-04-29T01:19:03.527Z,93.50
2017-04-29T01:21:31.833Z,93.60
2017-04-29T01:24:00.870Z,93.60
2017-04-29T01:26:29.156Z,93.60
2017-04-29T01:28:57.480Z,93.60
2017-04-29T01:31:26.514Z,93.60
2017-04-29T01:33:54.791Z,93.60
2017-04-29T01:36:23.108Z,93.60
2017-04-29T01:38:51.390Z,93.60
2017-04-29T01:41:19.685Z,93.60
2017-04-29T01:43:48.748Z,93.60
2017-04-29T01:46:17.028Z,93.60
2017-04-29T01:48:45.312Z,93.60
2017-04-29T01:51:13.642Z,93.60
2017-04-29T01:53:49.346Z,93.50
2017-04-29T01:56:17.658Z,93.40
2017-04-29T01:58:46.682Z,93.30
2017-04-29T02:01:14.982Z,93.20
2017-04-29T02:03:43.292Z,93.10
2017-04-29T02:06:11.589Z,93.10
2017-04-29T02:08:40.616Z,93.20
2017-04-29T02:11:08.944Z,93.30
2017-04-29T02:13:37.229Z,93.30
2017-04-29T02:16:05.534Z,93.30
2017-04-29T02:18:33.854Z,93.20
2017-04-29T02:21:02.139Z,93.20
2017-04-29T02:23:30.421Z,93.20
2017-04-29T02:25:58.741Z,93.10
2017-04-29T02:28:27.033Z,93.10
2017-04-29T02:30:55.378Z,93.10
2017-04-29T02:33:24.441Z,93.10
2017-04-29T02:35:52.730Z,93.20
2017-04-29T02:38:21.014Z,93.30
2017-04-29T02:40:49.348Z,93.40
2017-04-29T02:43:17.637Z,93.30
2017-04-29T02:45:45.924Z,93.40
2017-04-29T02:48:14.241Z,93.40
2017-04-29T02:50:42.544Z,93.50
2017-04-29T02:53:10.836Z,93.50
2017-04-29T02:55:39.176Z,93.60
2017-04-29T02:58:07.450Z,93.70
2017-04-29T03:00:36.502Z,93.70
2017-04-29T03:03:04.805Z,93.70
2017-04-29T03:05:33.093Z,93.70
2017-04-29T03:08:01.392Z,93.70
2017-04-29T03:10:29.707Z,93.70
2017-04-29T03:12:58.000Z,93.80
2017-04-29T03:15:26.285Z,94.20
2017-04-29T03:17:54.586Z,94.30
2017-04-29T03:20:23.624Z,94.40
2017-04-29T03:22:51.909Z,94.40
2017-04-29T03:25:20.236Z,94.50
2017-04-29T03:27:48.523Z,94.40
2017-04-29T03:30:17.554Z,94.50
2017-04-29T03:32:45.877Z,94.50
2017-04-29T03:35:14.157Z,94.50
2017-04-29T03:37:42.444Z,94.60
2017-04-29T03:40:10.763Z,94.60
2017-04-29T03:42:39.040Z,94.60
2017-04-29T03:45:07.319Z,94.60
2017-04-29T03:47:35.630Z,94.60
2017-04-29T03:50:03.908Z,94.60
2017-04-29T03:52:32.194Z,94.60
2017-04-29T03:55:00.504Z,94.70
2017-04-29T03:57:29.538Z,94.70
2017-04-29T03:59:57.814Z,94.70
2017-04-29T04:02:26.135Z,94.70
2017-04-29T04:04:54.420Z,94.80
2017-04-29T04:07:22.704Z,94.80
2017-04-29T04:09:51.027Z,94.90
2017-04-29T04:12:19.300Z,94.90
2017-04-29T04:14:47.580Z,94.90
2017-04-29T04:17:15.889Z,94.90
2017-04-29T04:19:44.173Z,94.90
2017-04-29T04:22:12.448Z,94.90
2017-04-29T04:24:40.819Z,94.90
2017-04-29T04:27:09.099Z,94.90
2017-04-29T04:29:37.393Z,94.90
2017-04-29T04:32:05.720Z,95.20
2017-04-29T04:34:33.991Z,95.00
2017-04-29T04:37:02.273Z,95.00
2017-04-29T04:39:30.594Z,95.00
2017-04-29T04:41:58.884Z,94.80
2017-04-29T04:44:27.165Z,94.60
2017-04-29T04:46:55.484Z,94.60
2017-04-29T04:49:23.769Z,94.40
2017-04-29T04:51:52.055Z,94.30
2017-04-29T04:54:20.378Z,94.30
2017-04-29T04:56:48.661Z,94.30
2017-04-29T04:59:16.950Z,94.30
2017-04-29T05:01:46.026Z,94.20
2017-04-29T05:04:14.317Z,94.00
2017-04-29T05:06:42.605Z,93.30
2017-04-29T05:09:10.943Z,92.80
2017-04-29T05:11:39.256Z,92.40
2017-04-29T05:14:08.281Z,91.80
2017-04-29T05:16:36.601Z,90.80
2017-04-29T05:19:04.879Z,90.50
2017-04-29T05:21:33.177Z,90.30
2017-04-29T05:24:01.500Z,90.40
2017-04-29T05:26:29.791Z,89.10
2017-04-29T05:28:58.092Z,88.10
2017-04-29T05:31:26.404Z,85.70
2017-04-29T05:33:55.437Z,86.10
2017-04-29T05:36:23.719Z,86.50
2017-04-29T05:38:52.050Z,86.30
2017-04-29T05:41:20.336Z,85.00
2017-04-29T05:43:49.381Z,84.80
2017-04-29T05:46:17.708Z,82.50
2017-04-29T05:48:46.751Z,81.50
2017-04-29T05:51:15.046Z,79.90
2017-04-29T05:53:43.369Z,80.10
2017-04-29T05:56:12.384Z,82.40
2017-04-29T05:58:40.661Z,81.30
2017-04-29T06:01:08.974Z,82.50
2017-04-29T06:03:37.264Z,81.70
2017-04-29T06:06:05.547Z,80.10
2017-04-29T06:08:33.871Z,79.90
2017-04-29T06:11:02.156Z,79.70
2017-04-29T06:13:30.433Z,80.80
2017-04-29T06:15:58.752Z,80.00
2017-04-29T06:18:27.046Z,80.20
2017-04-29T06:20:55.361Z,83.00
2017-04-29T06:23:23.684Z,82.00
2017-04-29T06:25:51.965Z,81.50
2017-04-29T06:28:20.245Z,81.20
2017-04-29T06:30:48.572Z,80.00
2017-04-29T06:33:16.856Z,80.30
2017-04-29T06:35:45.145Z,77.30
2017-04-29T06:38:13.468Z,75.70
2017-04-29T06:40:41.756Z,75.20
2017-04-29T06:43:10.790Z,75.50
2017-04-29T06:45:39.118Z,71.90
2017-04-29T06:48:07.402Z,67.60
2017-04-29T06:50:35.690Z,65.10
2017-04-29T06:53:04.013Z,62.40
2017-04-29T06:55:32.305Z,59.30
2017-04-29T06:58:00.609Z,58.90
2017-04-29T07:00:28.949Z,60.20
2017-04-29T07:02:57.240Z,56.30
2017-04-29T07:05:25.528Z,55.10
2017-04-29T07:07:53.856Z,54.50
2017-04-29T07:10:22.145Z,53.10
2017-04-29T07:12:50.440Z,58.10
2017-04-29T07:15:21.734Z,58.40
2017-04-29T07:17:50.772Z,58.80
2017-04-29T07:20:19.062Z,56.50
2017-04-29T07:22:47.394Z,57.60
2017-04-29T07:25:17.363Z,56.70
2017-04-29T07:27:45.702Z,56.60
2017-04-29T07:30:15.273Z,55.40
2017-04-29T07:32:43.553Z,57.60
2017-04-29T07:35:11.849Z,61.20
2017-04-29T07:37:40.173Z,59.30
2017-04-29T07:40:11.925Z,61.00
2017-04-29T07:45:19.176Z,64.80
2017-04-29T07:47:48.168Z,61.90
2017-04-29T07:50:17.971Z,61.40
2017-04-29T07:52:47.085Z,60.30
2017-04-29T07:55:16.781Z,57.20
2017-04-29T07:57:45.238Z,57.90
2017-04-29T08:00:18.399Z,61.50
2017-04-29T08:02:55.179Z,62.60
2017-04-29T08:05:23.607Z,63.40
2017-04-29T08:07:52.006Z,66.40
2017-04-29T08:10:20.284Z,74.20
2017-04-29T08:12:48.602Z,71.40
2017-04-29T08:15:17.615Z,70.50
2017-04-29T08:17:45.895Z,70.30
2017-04-29T08:20:14.221Z,70.00
2017-04-29T08:22:42.566Z,73.30
2017-04-29T08:25:10.871Z,69.70
2017-04-29T08:27:39.185Z,71.90
2017-04-29T08:30:08.214Z,65.80
2017-04-29T08:32:36.533Z,66.50
2017-04-29T08:35:04.859Z,64.90
2017-04-29T08:37:33.152Z,64.10
2017-04-29T08:40:01.439Z,60.20
2017-04-29T08:42:29.779Z,58.00
2017-04-29T08:44:58.808Z,61.20
2017-04-29T08:47:27.092Z,60.00
2017-04-29T08:49:55.422Z,57.10
2017-04-29T08:52:24.456Z,56.60
2017-04-29T08:54:52.746Z,55.70
2017-04-29T08:57:21.060Z,53.80
2017-04-29T08:59:49.340Z,50.90
2017-04-29T09:02:17.627Z,50.00
2017-04-29T09:04:46.700Z,53.50
2017-04-29T09:07:14.991Z,53.00
2017-04-29T09:09:43.269Z,53.90
2017-04-29T09:12:11.597Z,55.20
2017-04-29T09:14:39.875Z,55.20
2017-04-29T09:17:08.157Z,58.80
2017-04-29T09:19:36.501Z,58.20
2017-04-29T09:22:04.801Z,58.30
2017-04-29T09:24:33.096Z,54.30
2017-04-29T09:27:01.426Z,55.30
2017-04-29T09:29:33.404Z,56.50
2017-04-29T09:32:02.469Z,57.60
2017-04-29T09:34:30.750Z,54.80
2017-04-29T09:36:59.037Z,53.00
2017-04-29T09:39:28.120Z,52.10
2017-04-29T09:41:56.404Z,51.10
2017-04-29T09:44:24.691Z,50.90
2017-04-29T09:46:53.015Z,48.00
2017-04-29T09:49:21.305Z,47.30
2017-04-29T09:51:49.603Z,48.50
2017-04-29T09:54:17.933Z,49.00
2017-04-29T09:56:46.218Z,49.10
2017-04-29T09:59:14.533Z,49.20
2017-04-29T10:01:42.859Z,50.10
2017-04-29T10:04:11.888Z,50.10
2017-04-29T10:06:40.171Z,49.00
2017-04-29T10:09:08.488Z,53.90
2017-04-29T10:11:36.772Z,48.90
2017-04-29T10:14:05.984Z,49.00
2017-04-29T10:16:34.305Z,46.80
2017-04-29T10:19:03.514Z,48.50
2017-04-29T10:21:31.808Z,49.50
2017-04-29T10:24:00.140Z,45.00
2017-04-29T10:26:28.436Z,42.20
2017-04-29T10:28:56.736Z,44.60
2017-04-29T10:31:25.075Z,43.30
2017-04-29T10:33:53.373Z,45.10
2017-04-29T10:36:21.661Z,41.90
2017-04-29T10:38:49.989Z,41.20
2017-04-29T10:41:19.012Z,42.90
2017-04-29T10:43:47.295Z,39.50
2017-04-29T10:46:15.624Z,37.40
2017-04-29T10:48:44.709Z,38.30
2017-04-29T10:51:12.992Z,39.20
2017-04-29T10:53:41.337Z,40.30
2017-04-29T10:56:09.672Z,41.50
2017-04-29T10:58:37.991Z,39.80
2017-04-29T11:01:06.332Z,38.20
2017-04-29T11:03:35.364Z,41.80
2017-04-29T11:06:03.679Z,36.20
2017-04-29T11:08:32.010Z,37.00
2017-04-29T11:11:00.326Z,37.90
2017-04-29T11:13:28.646Z,39.00
2017-04-29T11:15:56.971Z,38.50
2017-04-29T11:18:25.266Z,38.80
2017-04-29T11:20:53.565Z,39.40
2017-04-29T11:23:22.636Z,37.00
2017-04-29T11:25:50.979Z,38.20
2017-04-29T11:28:19.294Z,38.40
2017-04-29T11:30:47.594Z,38.50
2017-04-29T11:33:15.950Z,41.30
2017-04-29T11:35:44.248Z,45.00
2017-04-29T11:38:12.598Z,44.50
2017-04-29T11:40:40.888Z,40.60
2017-04-29T11:43:09.199Z,43.60
2017-04-29T11:45:37.550Z,43.00
2017-04-29T11:48:05.854Z,44.30
2017-04-29T11:50:34.144Z,41.90
2017-04-29T11:53:02.490Z,42.00
2017-04-29T11:55:30.791Z,42.80
2017-04-29T11:57:59.834Z,44.40
2017-04-29T12:00:28.168Z,44.30
2017-04-29T12:02:57.224Z,40.90
2017-04-29T12:05:25.514Z,43.90
2017-04-29T12:07:53.845Z,39.10
2017-04-29T12:10:22.129Z,38.10
2017-04-29T12:12:50.428Z,36.90
2017-04-29T12:15:18.810Z,37.30
2017-04-29T12:17:47.091Z,36.70
2017-04-29T12:20:18.929Z,40.00
2017-04-29T12:22:47.209Z,39.00
2017-04-29T12:25:15.505Z,39.30
2017-04-29T12:27:43.831Z,38.10
2017-04-29T12:30:12.125Z,38.50
2017-04-29T12:32:40.413Z,40.10
2017-04-29T12:35:08.768Z,40.40
2017-04-29T12:37:37.045Z,40.90
2017-04-29T12:40:06.068Z,41.50
2017-04-29T12:42:34.397Z,39.20
2017-04-29T12:45:02.681Z,40.80
2017-04-29T12:47:30.973Z,42.40
2017-04-29T12:50:00.039Z,37.60
2017-04-29T12:52:28.316Z,36.70
2017-04-29T12:54:56.589Z,35.50
2017-04-29T12:57:24.909Z,34.90
2017-04-29T12:59:53.933Z,35.30
2017-04-29T13:02:22.221Z,30.60
2017-04-29T13:04:50.548Z,34.20
2017-04-29T13:07:19.567Z,31.50
2017-04-29T13:09:47.853Z,32.70
2017-04-29T13:12:16.202Z,32.90
2017-04-29T13:14:44.521Z,35.10
2017-04-29T13:17:12.808Z,37.00
2017-04-29T13:19:41.121Z,34.40
2017-04-29T13:22:09.397Z,33.80
2017-04-29T13:24:37.682Z,34.80
2017-04-29T13:27:06.009Z,35.70
2017-04-29T13:29:34.298Z,33.30
2017-04-29T13:32:02.590Z,34.40
2017-04-29T13:34:30.914Z,32.10
2017-04-29T13:36:59.933Z,33.50
2017-04-29T13:39:28.210Z,29.90
2017-04-29T13:41:56.529Z,35.70
2017-04-29T13:44:24.817Z,32.30
2017-04-29T13:46:53.098Z,32.90
2017-04-29T13:49:21.424Z,34.80
2017-04-29T13:51:49.697Z,34.20
2017-04-29T13:54:18.066Z,34.50
2017-04-29T13:56:47.129Z,36.80
2017-04-29T13:59:15.424Z,36.10
2017-04-29T14:01:44.441Z,36.60
2017-04-29T14:04:13.667Z,36.50
2017-04-29T14:06:41.961Z,33.30
2017-04-29T14:09:10.241Z,34.50
2017-04-29T14:11:38.576Z,34.50
2017-04-29T14:14:06.858Z,34.10
2017-04-29T14:16:35.154Z,38.70
2017-04-29T14:19:03.453Z,39.40
2017-04-29T14:21:31.734Z,39.70
2017-04-29T14:24:00.048Z,40.80
2017-04-29T14:26:29.060Z,41.10
2017-04-29T14:28:57.344Z,40.70
2017-04-29T14:31:25.656Z,41.20
2017-04-29T14:33:53.933Z,41.20
2017-04-29T14:36:22.203Z,40.50
2017-04-29T14:38:50.524Z,42.20
2017-04-29T14:41:19.551Z,38.80
2017-04-29T14:43:47.829Z,38.30
2017-04-29T14:46:16.148Z,38.40
2017-04-29T14:48:44.424Z,40.80
2017-04-29T14:51:12.705Z,40.00
2017-04-29T14:53:41.014Z,38.80
2017-04-29T14:56:10.033Z,37.70
2017-04-29T14:58:38.313Z,41.30
2017-04-29T15:01:06.633Z,40.60
2017-04-29T15:03:35.116Z,41.70
2017-04-29T15:06:03.396Z,44.00
2017-04-29T15:08:31.712Z,43.90
2017-04-29T15:11:00.728Z,43.60
2017-04-29T15:13:29.006Z,44.50
2017-04-29T15:15:57.329Z,44.80
2017-04-29T15:18:25.608Z,44.10
2017-04-29T15:20:54.825Z,44.80
2017-04-29T15:23:23.141Z,44.20
2017-04-29T15:25:51.423Z,44.10
2017-04-29T15:28:19.706Z,44.50
2017-04-29T15:30:48.017Z,48.00
2017-04-29T15:33:16.288Z,46.20
2017-04-29T15:35:44.573Z,46.40
2017-04-29T15:38:12.882Z,46.00
2017-04-29T15:40:41.903Z,46.20
2017-04-29T15:43:17.105Z,47.20
2017-04-29T15:45:45.377Z,48.00
2017-04-29T15:48:17.166Z,47.60
2017-04-29T15:53:26.973Z,45.60
2017-04-29T15:55:57.141Z,46.00
2017-04-29T15:58:28.742Z,47.20
2017-04-29T16:01:00.263Z,43.00
2017-04-29T16:03:29.842Z,40.50
2017-04-29T16:06:01.853Z,40.20
2017-04-29T16:11:05.884Z,35.40
2017-04-29T16:16:10.741Z,33.30
2017-04-29T16:23:36.473Z,28.90
2017-04-29T16:26:07.818Z,31.10
2017-04-29T16:28:36.845Z,31.70
2017-04-29T16:31:05.128Z,29.70
2017-04-29T16:33:33.440Z,32.20
2017-04-29T16:36:01.751Z,34.30
2017-04-29T16:38:30.808Z,33.40
2017-04-29T16:40:59.111Z,34.30
2017-04-29T16:43:28.141Z,34.60
2017-04-29T16:45:56.455Z,33.30
2017-04-29T16:48:24.748Z,34.30
2017-04-29T16:50:53.052Z,34.40
2017-04-29T16:53:22.077Z,34.20
2017-04-29T16:55:50.389Z,37.00
2017-04-29T16:58:18.673Z,39.70
2017-04-29T17:00:46.978Z,37.60
2017-04-29T17:03:16.013Z,37.30
2017-04-29T17:05:44.299Z,41.40
2017-04-29T17:08:12.591Z,41.20
2017-04-29T17:10:40.884Z,39.80
2017-04-29T17:13:09.209Z,39.80
2017-04-29T17:15:37.484Z,41.00
2017-04-29T17:18:05.763Z,40.30
2017-04-29T17:20:34.063Z,42.30
2017-04-29T17:23:02.343Z,40.70
2017-04-29T17:25:30.659Z,40.80
2017-04-29T17:27:58.932Z,38.00
2017-04-29T17:30:27.259Z,39.30
2017-04-29T17:32:55.527Z,40.30
2017-04-29T17:35:23.809Z,41.40
2017-04-29T17:37:52.109Z,38.20
2017-04-29T17:40:20.394Z,41.30
2017-04-29T17:42:48.673Z,42.30
2017-04-29T17:45:17.006Z,42.10
2017-04-29T17:47:46.023Z,43.50
2017-04-29T17:50:14.300Z,48.40
2017-04-29T17:52:42.617Z,49.60
2017-04-29T17:55:10.895Z,49.40
2017-04-29T17:57:39.172Z,51.30
2017-04-29T18:00:07.511Z,53.10
2017-04-29T18:02:35.791Z,53.60
2017-04-29T18:05:04.075Z,55.80
2017-04-29T18:07:32.378Z,55.10
2017-04-29T18:10:00.649Z,56.50
2017-04-29T18:12:28.927Z,57.20
2017-04-29T18:14:57.249Z,59.10
2017-04-29T18:17:26.316Z,58.60
2017-04-29T18:19:54.585Z,59.00
2017-04-29T18:22:22.912Z,59.70
2017-04-29T18:24:51.926Z,61.90
2017-04-29T18:27:20.200Z,62.20
2017-04-29T18:29:48.532Z,61.40
2017-04-29T18:32:16.804Z,61.70
2017-04-29T18:34:45.076Z,60.60
2017-04-29T18:37:13.383Z,61.60
2017-04-29T18:39:41.654Z,62.90
2017-04-29T18:42:09.924Z,64.30
2017-04-29T18:44:38.233Z,64.80
2017-04-29T18:47:07.256Z,65.40
2017-04-29T18:49:35.529Z,66.10
2017-04-29T18:52:03.833Z,65.30
2017-04-29T18:54:32.115Z,66.00
2017-04-29T18:57:00.399Z,66.70
2017-04-29T18:59:28.706Z,66.80
2017-04-29T19:01:57.720Z,67.00
2017-04-29T19:04:26.001Z,67.70
2017-04-29T19:06:54.329Z,68.10
2017-04-29T19:09:22.669Z,68.30
2017-04-29T19:11:50.945Z,69.20
2017-04-29T19:14:19.276Z,68.60
2017-04-29T19:16:47.642Z,69.90
2017-04-29T19:19:15.916Z,71.10
2017-04-29T19:21:44.217Z,72.20
2017-04-29T19:24:12.489Z,72.50
2017-04-29T19:26:40.793Z,73.50
2017-04-29T19:29:09.852Z,75.10
2017-04-29T19:31:38.129Z,75.90
2017-04-29T19:34:06.400Z,76.00
2017-04-29T19:36:34.709Z,77.30
2017-04-29T19:39:03.059Z,78.30
2017-04-29T19:41:31.333Z,78.70
2017-04-29T19:43:59.641Z,79.30
2017-04-29T19:46:27.909Z,80.40
2017-04-29T19:48:56.193Z,81.50
2017-04-29T19:51:24.499Z,81.60
2017-04-29T19:53:53.520Z,80.90
2017-04-29T19:56:21.801Z,80.80
2017-04-29T19:58:50.137Z,82.50
2017-04-29T20:01:19.168Z,82.40
2017-04-29T20:03:47.452Z,82.40
2017-04-29T20:06:15.788Z,83.00
2017-04-29T20:08:44.814Z,84.20
2017-04-29T20:11:13.100Z,83.50
2017-04-29T20:13:41.430Z,84.40
2017-04-29T20:16:09.722Z,85.30
2017-04-29T20:18:38.757Z,86.20
2017-04-29T20:21:07.067Z,86.50
2017-04-29T20:23:35.342Z,87.10
2017-04-29T20:26:03.660Z,87.50
2017-04-29T20:28:32.709Z,87.80
2017-04-29T20:31:00.988Z,87.40
2017-04-29T20:33:29.683Z,87.50
2017-04-29T20:35:57.996Z,87.90
2017-04-29T20:38:27.017Z,88.60
2017-04-29T20:40:55.333Z,88.60
2017-04-29T20:43:23.641Z,88.60
2017-04-29T20:45:52.656Z,88.60
2017-04-29T20:48:20.936Z,89.40
2017-04-29T20:50:50.054Z,89.80
2017-04-29T20:53:18.323Z,89.70
2017-04-29T20:55:46.606Z,90.00
2017-04-29T20:58:14.923Z,90.20
2017-04-29T21:00:43.200Z,90.50
2017-04-29T21:03:11.496Z,90.70
2017-04-29T21:05:39.824Z,90.80
2017-04-29T21:08:08.101Z,90.80
2017-04-29T21:10:36.390Z,90.80
2017-04-29T21:13:04.713Z,90.80
2017-04-29T21:15:33.737Z,90.80
2017-04-29T21:18:02.336Z,91.00
2017-04-29T21:20:30.640Z,91.20
2017-04-29T21:22:58.929Z,91.30
2017-04-29T21:25:27.210Z,91.20
2017-04-29T21:27:55.536Z,91.30
2017-04-29T21:30:23.821Z,91.30
2017-04-29T21:32:52.100Z,91.30
2017-04-29T21:35:20.429Z,91.40
2017-04-29T21:37:48.721Z,91.40
2017-04-29T21:40:17.749Z,91.60
2017-04-29T21:42:46.076Z,91.80
2017-04-29T21:45:20.049Z,91.90
2017-04-29T21:47:48.366Z,92.10
2017-04-29T21:50:16.646Z,92.20
2017-04-29T21:52:44.928Z,92.30
2017-04-29T21:55:13.256Z,92.40
2017-04-29T21:57:41.533Z,92.50
2017-04-29T22:00:09.892Z,92.50
2017-04-29T22:02:38.220Z,92.70
2017-04-29T22:05:06.495Z,92.70
2017-04-29T22:07:34.780Z,92.80
2017-04-29T22:10:03.099Z,92.80
2017-04-29T22:12:31.435Z,92.80
2017-04-29T22:14:59.717Z,92.90
2017-04-29T22:17:28.024Z,92.90
2017-04-29T22:19:57.048Z,92.90
2017-04-29T22:22:25.347Z,93.00
2017-04-29T22:24:53.641Z,93.10
2017-04-29T22:27:21.938Z,93.10
2017-04-29T22:29:50.253Z,93.20
2017-04-29T22:32:18.531Z,93.30
2017-04-29T22:34:46.830Z,93.40
2017-04-29T22:37:15.130Z,93.40
2017-04-29T22:39:43.408Z,93.40
2017-04-29T22:42:11.725Z,93.40
2017-04-29T22:44:40.006Z,93.40
2017-04-29T22:47:08.288Z,93.40
2017-04-29T22:49:36.606Z,93.30
2017-04-29T22:52:04.883Z,93.30
2017-04-29T22:54:33.233Z,93.30
2017-04-29T22:57:01.521Z,93.30
2017-04-29T22:59:29.816Z,93.30
2017-04-29T23:01:58.131Z,93.30
2017-04-29T23:04:26.416Z,93.30
2017-04-29T23:06:55.571Z,93.30
2017-04-29T23:09:23.860Z,93.20
2017-04-29T23:11:52.135Z,93.20
2017-04-29T23:14:22.357Z,93.20
2017-04-29T23:16:50.652Z,93.20
2017-04-29T23:19:18.967Z,93.20
2017-04-29T23:21:47.985Z,93.30
2017-04-29T23:24:16.267Z,93.40
2017-04-29T23:26:44.732Z,93.50
2017-04-29T23:29:13.018Z,93.60
2017-04-29T23:31:41.332Z,93.60
2017-04-29T23:34:09.612Z,93.70
2017-04-29T23:36:37.913Z,93.60
2017-04-29T23:39:06.215Z,93.70
2017-04-29T23:41:35.241Z,93.70
2017-04-29T23:44:03.611Z,93.70
2017-04-29T23:46:31.901Z,93.80
2017-04-29T23:49:00.184Z,93.80
2017-04-29T23:51:28.502Z,93.70
2017-04-29T23:53:56.785Z,93.80
2017-04-29T23:56:25.100Z,93.80
2017-04-29T23:58:53.384Z,93.80
